Time;durP1;ratioP1;P1;durP2;ratioP2;P2;SDS_P1;SDS_P2;PMS_P1;PMS_P2;Temp;Humidity;BMP_temperature;BMP_pressure;BME280_temperature;BME280_humidity;BME280_pressure;Samples;Min_cycle;Max_cycle;Signal;HPM_P1;HPM_P2
2022/01/25 00:15:12;;;;;;;45.42;25.00;;;4.10;99.90;;;;;;5070942;28;20060;-70
2022/01/25 00:26:18;;;;;;;46.72;24.50;;;4.10;99.90;;;;;;5059227;28;20091;-70
2022/01/25 00:28:48;;;;;;;46.03;26.52;;;4.10;99.90;;;;;;5066659;28;20137;-70
2022/01/25 00:31:17;;;;;;;45.58;25.08;;;4.00;99.90;;;;;;5051455;28;20493;-70
2022/01/25 00:33:47;;;;;;;47.67;25.95;;;4.10;99.90;;;;;;5051201;28;20132;-70
2022/01/25 00:36:17;;;;;;;47.83;26.92;;;4.10;99.90;;;;;;5050224;28;20053;-70
2022/01/25 00:38:45;;;;;;;48.88;26.20;;;4.10;99.90;;;;;;5051382;28;20498;-70
2022/01/25 00:41:13;;;;;;;45.10;25.45;;;4.10;99.90;;;;;;5051100;28;20064;-70
2022/01/25 00:43:41;;;;;;;43.90;23.77;;;4.10;99.90;;;;;;5050403;28;20103;-70
2022/01/25 00:46:10;;;;;;;48.75;24.67;;;4.10;99.90;;;;;;5051067;28;20041;-70
2022/01/25 00:48:47;;;;;;;46.72;24.38;;;4.10;99.90;;;;;;5052107;28;20053;-71
2022/01/25 00:51:23;;;;;;;47.85;25.40;;;4.00;99.90;;;;;;5052320;28;20049;-70
2022/01/25 00:53:56;;;;;;;47.08;25.73;;;4.00;99.90;;;;;;5051308;28;20606;-70
2022/01/25 00:56:26;;;;;;;51.40;27.35;;;4.00;99.90;;;;;;5050286;28;20460;-70
2022/01/25 00:58:54;;;;;;;51.88;24.50;;;4.00;99.90;;;;;;5055707;28;20059;-70
2022/01/25 01:01:22;;;;;;;47.90;26.17;;;4.00;99.90;;;;;;5071636;28;20415;-70
2022/01/25 01:03:49;;;;;;;53.45;26.02;;;4.00;99.90;;;;;;5072126;28;20060;-70
2022/01/25 01:06:16;;;;;;;49.28;25.02;;;4.00;99.90;;;;;;5074241;28;20099;-71
2022/01/25 01:08:44;;;;;;;46.53;25.52;;;4.00;99.90;;;;;;5074528;28;20135;-71
2022/01/25 01:11:17;;;;;;;50.13;26.90;;;4.00;99.90;;;;;;5073891;28;20114;-70
2022/01/25 01:13:59;;;;;;;45.88;25.05;;;4.00;99.90;;;;;;5074925;28;20419;-71
2022/01/25 01:30:23;;;;;;;48.63;27.05;;;4.00;99.90;;;;;;5054467;28;20389;-71
2022/01/25 01:33:27;;;;;;;47.63;25.17;;;4.10;99.90;;;;;;5053690;28;20092;-71
2022/01/25 01:44:37;;;;;;;44.47;23.92;;;4.00;99.90;;;;;;5043605;28;20519;-70
2022/01/25 01:47:10;;;;;;;48.40;26.10;;;4.00;99.90;;;;;;5073233;28;20131;-70
2022/01/25 01:49:41;;;;;;;47.78;25.40;;;4.00;99.90;;;;;;5074256;28;20059;-71
2022/01/25 01:52:10;;;;;;;44.47;25.38;;;4.10;99.90;;;;;;5073012;28;20098;-71
2022/01/25 01:54:37;;;;;;;49.97;26.48;;;4.00;99.90;;;;;;5070536;28;20405;-71
2022/01/25 01:57:05;;;;;;;50.38;26.35;;;4.10;99.90;;;;;;5053680;28;20110;-71
2022/01/25 01:59:32;;;;;;;52.20;25.55;;;4.00;99.90;;;;;;5053244;28;20044;-71
2022/01/25 02:02:00;;;;;;;48.20;24.75;;;4.00;99.90;;;;;;5053513;28;20053;-71
2022/01/25 02:04:29;;;;;;;45.03;24.70;;;4.10;99.90;;;;;;5053728;28;20459;-71
2022/01/25 02:06:55;;;;;;;48.95;25.67;;;4.00;99.90;;;;;;5052704;28;20049;-71
2022/01/25 02:09:23;;;;;;;43.78;25.27;;;4.00;99.90;;;;;;5053844;28;20417;-71
2022/01/25 02:11:49;;;;;;;50.95;25.95;;;4.00;99.90;;;;;;5053736;28;20111;-71
2022/01/25 02:14:16;;;;;;;54.78;26.17;;;4.00;99.90;;;;;;5052661;28;20382;-71
2022/01/25 02:17:00;;;;;;;52.72;25.95;;;4.00;99.90;;;;;;5052925;28;20048;-71
2022/01/25 02:24:55;;;;;;;44.03;24.92;;;4.00;99.90;;;;;;5051171;28;20088;-71
2022/01/25 02:27:22;;;;;;;47.88;24.60;;;4.00;99.90;;;;;;5052181;28;20107;-71
2022/01/25 02:29:48;;;;;;;40.33;24.73;;;4.00;99.90;;;;;;5053050;28;20062;-71
2022/01/25 02:32:15;;;;;;;50.17;26.98;;;3.90;99.90;;;;;;5053067;28;20049;-70
2022/01/25 02:34:43;;;;;;;46.05;24.33;;;4.00;99.90;;;;;;5068399;28;20130;-71
2022/01/25 02:37:12;;;;;;;52.42;26.48;;;3.90;99.90;;;;;;5072640;28;20045;-70
2022/01/25 02:39:42;;;;;;;46.83;25.30;;;4.00;99.90;;;;;;5072722;28;20060;-71
2022/01/25 02:42:11;;;;;;;49.07;26.47;;;4.00;99.90;;;;;;5072357;28;20143;-70
2022/01/25 02:44:38;;;;;;;52.83;27.13;;;3.90;99.90;;;;;;5054761;28;20721;-70
2022/01/25 02:49:51;;;;;;;47.15;26.10;;;4.00;99.90;;;;;;5052208;28;20052;-70
2022/01/25 02:52:18;;;;;;;48.40;26.20;;;4.00;99.90;;;;;;5052310;28;20053;-72
2022/01/25 02:54:47;;;;;;;50.83;26.95;;;3.90;99.90;;;;;;5052402;28;20049;-71
2022/01/25 02:57:14;;;;;;;52.08;27.38;;;4.00;99.90;;;;;;5052059;28;20489;-70
2022/01/25 02:59:41;;;;;;;50.95;28.95;;;4.00;99.90;;;;;;5052840;28;20102;-70
2022/01/25 03:02:08;;;;;;;49.92;27.95;;;3.90;99.90;;;;;;5052453;28;20057;-71
2022/01/25 03:04:35;;;;;;;46.40;24.67;;;4.00;99.90;;;;;;5051513;28;20111;-72
2022/01/25 03:07:02;;;;;;;48.40;25.83;;;3.90;99.90;;;;;;5052021;28;20095;-71
2022/01/25 03:09:29;;;;;;;46.40;25.80;;;3.90;99.90;;;;;;5061851;28;20110;-71
2022/01/25 03:11:59;;;;;;;45.80;26.00;;;3.90;99.90;;;;;;5072131;28;20109;-71
2022/01/25 03:14:31;;;;;;;46.63;28.00;;;3.90;99.90;;;;;;5072573;28;20072;-71
2022/01/25 03:17:11;;;;;;;56.08;28.35;;;3.90;99.90;;;;;;5072039;28;20102;-70
2022/01/25 03:20:01;;;;;;;50.40;27.50;;;3.90;99.90;;;;;;5072264;28;20136;-70
2022/01/25 03:22:55;;;;;;;49.75;27.60;;;3.90;99.90;;;;;;5032132;28;20064;-70
2022/01/25 03:25:24;;;;;;;52.63;27.70;;;3.90;99.90;;;;;;5031399;28;20444;-70
2022/01/25 03:27:52;;;;;;;51.58;27.55;;;3.90;99.90;;;;;;5031838;28;20119;-71
2022/01/25 03:30:19;;;;;;;48.72;26.60;;;3.90;99.90;;;;;;5032630;28;20097;-71
2022/01/25 03:32:45;;;;;;;50.83;27.23;;;3.90;99.90;;;;;;5033019;28;20497;-71
2022/01/25 03:35:12;;;;;;;49.10;28.05;;;4.00;99.90;;;;;;5031837;28;20111;-71
2022/01/25 03:37:39;;;;;;;54.75;28.35;;;3.90;99.90;;;;;;5031169;28;20045;-71
2022/01/25 03:40:07;;;;;;;46.88;27.25;;;3.80;99.90;;;;;;5031836;28;20053;-71
2022/01/25 03:42:36;;;;;;;48.47;26.20;;;3.80;99.90;;;;;;5033153;28;20049;-71
2022/01/25 03:45:07;;;;;;;53.25;29.02;;;3.90;99.90;;;;;;5031506;28;20050;-71
2022/01/25 03:47:45;;;;;;;47.90;25.80;;;3.80;99.90;;;;;;5031676;28;20041;-71
2022/01/25 03:50:11;;;;;;;48.70;25.58;;;3.90;99.90;;;;;;5035734;28;20057;-71
2022/01/25 03:52:38;;;;;;;48.85;26.52;;;3.90;99.90;;;;;;5051441;28;20048;-71
2022/01/25 03:55:06;;;;;;;53.17;27.27;;;3.80;99.90;;;;;;5051380;28;20570;-71
2022/01/25 03:57:33;;;;;;;55.13;28.98;;;3.80;99.90;;;;;;5052051;28;20106;-71
2022/01/25 04:00:00;;;;;;;49.55;26.73;;;3.90;99.90;;;;;;5051191;28;20090;-71
2022/01/25 04:02:32;;;;;;;48.13;25.50;;;4.70;99.90;;;;;;5069924;28;20384;-71
2022/01/25 04:05:00;;;;;;;46.20;25.70;;;3.90;99.90;;;;;;5071327;28;20109;-71
2022/01/25 04:07:28;;;;;;;52.20;25.63;;;3.80;99.90;;;;;;5070835;28;20048;-71
2022/01/25 04:09:55;;;;;;;52.00;28.13;;;3.80;99.90;;;;;;5072133;28;20431;-71
2022/01/25 04:12:22;;;;;;;45.78;26.15;;;3.90;99.90;;;;;;5071818;28;20189;-71
2022/01/25 04:14:49;;;;;;;49.70;26.58;;;3.90;99.90;;;;;;5070593;28;20056;-71
2022/01/25 04:17:19;;;;;;;53.67;28.15;;;3.90;99.90;;;;;;5071595;28;20051;-71
2022/01/25 04:20:09;;;;;;;55.65;27.55;;;3.80;99.90;;;;;;5071027;28;20496;-71
2022/01/25 04:25:18;;;;;;;54.30;26.77;;;3.80;99.90;;;;;;5071529;28;20388;-71
2022/01/25 04:27:45;;;;;;;50.78;28.13;;;3.80;99.90;;;;;;5072113;28;20480;-71
2022/01/25 04:30:13;;;;;;;55.63;27.20;;;3.90;99.90;;;;;;5071521;28;20109;-71
2022/01/25 04:32:47;;;;;;;50.83;24.40;;;3.80;99.90;;;;;;5071927;28;20074;-70
2022/01/25 04:35:43;;;;;;;53.13;26.27;;;3.80;99.90;;;;;;5070349;28;20088;-70
2022/01/25 04:49:14;;;;;;;52.35;26.92;;;3.80;99.90;;;;;;5071509;28;20068;-70
2022/01/25 04:54:38;;;;;;;50.83;23.85;;;3.80;99.90;;;;;;5053611;28;19931;-69
2022/01/25 04:57:18;;;;;;;51.35;27.10;;;3.80;99.90;;;;;;5052229;28;20049;-69
2022/01/25 04:59:50;;;;;;;47.83;26.45;;;3.80;99.90;;;;;;5052765;28;20060;-70
2022/01/25 05:02:26;;;;;;;48.80;25.67;;;3.80;99.90;;;;;;5052188;28;20056;-70
2022/01/25 05:04:58;;;;;;;51.00;28.33;;;3.80;99.90;;;;;;5050929;28;20057;-70
2022/01/25 05:07:33;;;;;;;57.63;27.65;;;3.80;99.90;;;;;;5053587;28;20049;-70
2022/01/25 05:10:02;;;;;;;47.47;24.90;;;3.80;99.90;;;;;;5051209;28;20063;-69
2022/01/25 05:12:39;;;;;;;55.78;26.02;;;3.80;99.90;;;;;;5054539;28;20540;-69
2022/01/25 05:15:20;;;;;;;55.20;26.75;;;3.90;99.90;;;;;;5053416;28;20048;-69
2022/01/25 05:18:00;;;;;;;49.67;26.25;;;3.80;99.90;;;;;;5052175;28;20497;-70
2022/01/25 05:23:13;;;;;;;51.88;27.17;;;3.80;99.90;;;;;;5069256;28;20063;-70
2022/01/25 05:25:40;;;;;;;50.10;27.00;;;3.80;99.90;;;;;;5053476;28;20501;-70
2022/01/25 05:28:06;;;;;;;54.45;27.17;;;3.80;99.90;;;;;;5053749;28;20489;-71
2022/01/25 05:30:33;;;;;;;50.83;25.58;;;3.80;99.90;;;;;;5054241;28;20451;-70
2022/01/25 05:33:00;;;;;;;51.65;29.13;;;3.80;99.90;;;;;;5054728;28;20077;-71
2022/01/25 05:35:27;;;;;;;46.65;26.80;;;3.80;99.90;;;;;;5052918;28;20122;-70
2022/01/25 05:37:54;;;;;;;51.80;27.10;;;3.80;99.90;;;;;;5047337;28;20099;-70
2022/01/25 05:40:39;;;;;;;57.80;26.55;;;3.80;99.90;;;;;;5052946;28;20053;-70
2022/01/25 05:48:34;;;;;;;48.88;25.85;;;3.90;99.90;;;;;;5048923;28;20063;-70
2022/01/25 05:51:01;;;;;;;49.92;27.10;;;3.90;99.90;;;;;;5054265;28;20453;-70
2022/01/25 05:53:28;;;;;;;50.80;27.23;;;3.90;99.90;;;;;;5052714;28;20489;-70
2022/01/25 05:55:57;;;;;;;50.70;28.00;;;3.90;99.90;;;;;;5050961;28;20067;-71
2022/01/25 05:58:24;;;;;;;48.17;24.30;;;3.90;99.90;;;;;;5052540;28;20049;-70
2022/01/25 06:00:51;;;;;;;51.10;26.52;;;3.90;99.90;;;;;;5052270;28;20095;-69
2022/01/25 06:03:18;;;;;;;49.97;26.05;;;3.90;99.90;;;;;;5052923;28;20080;-70
2022/01/25 06:05:45;;;;;;;51.63;27.73;;;3.90;99.90;;;;;;5051660;28;20045;-70
2022/01/25 06:08:12;;;;;;;52.55;28.33;;;4.00;99.90;;;;;;5051254;28;20053;-70
2022/01/25 06:10:39;;;;;;;50.72;26.80;;;3.90;99.90;;;;;;5052955;28;20106;-69
2022/01/25 06:13:07;;;;;;;48.10;27.20;;;4.00;99.90;;;;;;5051288;28;20081;-71
2022/01/25 06:15:34;;;;;;;52.65;28.48;;;4.00;99.90;;;;;;5050619;28;20044;-70
2022/01/25 06:18:01;;;;;;;49.85;26.05;;;4.00;99.90;;;;;;5051823;28;20076;-71
2022/01/25 06:20:29;;;;;;;46.95;27.00;;;4.00;99.90;;;;;;5053017;28;20496;-71
2022/01/25 06:22:56;;;;;;;60.67;27.60;;;4.00;99.90;;;;;;5050259;28;20080;-70
2022/01/25 06:25:23;;;;;;;49.42;27.50;;;3.90;99.90;;;;;;5051670;28;20134;-70
2022/01/25 06:27:50;;;;;;;52.88;29.10;;;4.00;99.90;;;;;;5051489;28;20458;-71
2022/01/25 06:30:20;;;;;;;45.83;25.38;;;4.00;99.90;;;;;;5052082;28;20081;-70
2022/01/25 06:32:47;;;;;;;52.67;27.20;;;4.00;99.90;;;;;;5052561;28;20086;-71
2022/01/25 06:35:15;;;;;;;48.67;24.80;;;4.00;99.90;;;;;;5048704;28;20052;-71
2022/01/25 06:37:43;;;;;;;47.90;27.05;;;4.00;99.90;;;;;;5051851;28;20522;-70
2022/01/25 06:40:11;;;;;;;47.80;26.60;;;3.90;99.90;;;;;;5051642;28;20106;-70
2022/01/25 06:42:38;;;;;;;47.97;26.60;;;4.00;99.90;;;;;;5051590;28;20045;-70
2022/01/25 06:45:12;;;;;;;52.78;29.02;;;4.00;99.90;;;;;;5051524;28;20114;-70
2022/01/25 06:47:40;;;;;;;48.65;27.73;;;4.00;99.90;;;;;;5051123;28;20136;-70
2022/01/25 06:50:08;;;;;;;48.30;26.83;;;3.90;99.90;;;;;;5048825;28;20053;-70
2022/01/25 06:52:36;;;;;;;55.08;26.65;;;3.90;99.90;;;;;;5050670;28;20045;-70
2022/01/25 06:55:05;;;;;;;51.35;26.65;;;4.00;99.90;;;;;;5050766;28;20056;-71
2022/01/25 06:57:32;;;;;;;47.92;27.25;;;4.00;99.90;;;;;;5051833;28;20103;-70
2022/01/25 06:59:59;;;;;;;46.92;25.00;;;3.90;99.90;;;;;;5051357;28;20460;-70
2022/01/25 07:02:25;;;;;;;56.60;29.13;;;3.90;99.90;;;;;;5050025;28;20053;-69
2022/01/25 07:04:54;;;;;;;53.15;26.63;;;4.00;99.90;;;;;;5048734;28;20467;-71
2022/01/25 07:07:21;;;;;;;53.40;28.23;;;4.00;99.90;;;;;;5051443;28;20102;-70
2022/01/25 07:09:47;;;;;;;50.70;28.42;;;4.00;99.90;;;;;;5050872;28;20131;-70
2022/01/25 07:12:14;;;;;;;50.20;27.50;;;4.00;99.90;;;;;;5051484;28;20053;-70
2022/01/25 07:14:41;;;;;;;48.17;26.83;;;4.00;99.90;;;;;;5052272;28;20044;-68
2022/01/25 07:17:08;;;;;;;52.58;26.85;;;4.00;99.90;;;;;;5050827;28;20550;-69
2022/01/25 07:19:35;;;;;;;55.72;28.00;;;4.00;99.90;;;;;;5051437;28;20083;-70
2022/01/25 07:22:03;;;;;;;51.30;27.05;;;4.00;99.90;;;;;;5050994;28;20099;-69
2022/01/25 07:24:30;;;;;;;50.13;27.08;;;4.10;99.90;;;;;;5050784;28;20048;-69
2022/01/25 07:26:57;;;;;;;50.83;27.27;;;4.00;99.90;;;;;;5057110;28;20123;-70
2022/01/25 07:29:24;;;;;;;58.20;29.02;;;4.00;99.90;;;;;;5050294;28;20057;-71
2022/01/25 07:31:51;;;;;;;57.03;28.40;;;4.00;99.90;;;;;;5066729;28;20057;-70
2022/01/25 07:34:17;;;;;;;50.50;27.83;;;4.00;99.90;;;;;;5069087;28;20057;-70
2022/01/25 07:36:44;;;;;;;53.28;28.15;;;4.00;99.90;;;;;;5067518;28;20057;-70
2022/01/25 07:39:12;;;;;;;52.17;28.15;;;4.00;99.90;;;;;;5068496;28;20398;-70
2022/01/25 07:41:40;;;;;;;55.25;27.52;;;4.00;99.90;;;;;;5051563;28;20053;-70
2022/01/25 07:44:07;;;;;;;51.95;28.42;;;4.00;99.90;;;;;;5051084;28;20053;-70
2022/01/25 07:46:34;;;;;;;52.42;29.52;;;4.00;99.90;;;;;;5051059;28;20049;-70
2022/01/25 07:49:01;;;;;;;51.42;28.52;;;4.00;99.90;;;;;;5051367;28;20485;-70
2022/01/25 07:51:28;;;;;;;52.45;27.25;;;4.00;99.90;;;;;;5067728;28;20110;-70
2022/01/25 07:53:55;;;;;;;53.72;28.98;;;4.00;99.90;;;;;;5068086;28;20409;-70
2022/01/25 07:56:24;;;;;;;58.55;30.65;;;4.00;99.90;;;;;;5051175;28;20080;-70
2022/01/25 07:58:51;;;;;;;53.78;29.02;;;4.00;99.90;;;;;;5051619;28;20111;-70
2022/01/25 08:01:19;;;;;;;59.58;30.92;;;3.90;99.90;;;;;;5051550;28;20053;-70
2022/01/25 08:03:46;;;;;;;53.25;28.10;;;3.90;99.90;;;;;;5051508;28;20114;-70
2022/01/25 08:06:13;;;;;;;55.75;29.83;;;3.90;99.90;;;;;;5051061;28;20106;-72
2022/01/25 08:08:41;;;;;;;54.85;28.38;;;3.90;99.90;;;;;;5051265;28;20090;-69
2022/01/25 08:11:08;;;;;;;60.20;29.02;;;3.90;99.90;;;;;;5051133;28;20052;-70
2022/01/25 08:13:38;;;;;;;51.75;29.23;;;3.90;99.90;;;;;;5053541;28;20085;-69
2022/01/25 08:16:05;;;;;;;54.67;28.83;;;3.90;99.90;;;;;;5055559;28;20132;-70
2022/01/25 08:18:32;;;;;;;53.88;29.23;;;3.90;99.90;;;;;;5056625;28;20447;-69
2022/01/25 08:20:59;;;;;;;52.15;29.05;;;4.00;99.90;;;;;;5054602;28;20053;-69
2022/01/25 08:23:26;;;;;;;57.78;28.48;;;4.00;99.90;;;;;;5055518;28;20412;-69
2022/01/25 08:25:52;;;;;;;53.10;28.52;;;3.90;99.90;;;;;;5055157;28;20481;-69
2022/01/25 08:28:20;;;;;;;65.22;29.40;;;3.90;99.90;;;;;;5056054;28;20045;-70
2022/01/25 08:30:48;;;;;;;57.60;30.27;;;3.90;99.90;;;;;;5054972;28;20060;-71
2022/01/25 08:33:16;;;;;;;50.00;28.45;;;4.00;99.90;;;;;;5055675;28;20555;-71
2022/01/25 08:35:43;;;;;;;54.72;29.63;;;4.00;99.90;;;;;;5056249;28;20107;-70
2022/01/25 08:38:10;;;;;;;55.95;30.90;;;4.00;99.90;;;;;;5054975;28;20049;-70
2022/01/25 08:40:37;;;;;;;57.67;28.48;;;4.00;99.90;;;;;;5054580;28;20052;-70
2022/01/25 08:43:04;;;;;;;54.25;27.65;;;4.00;99.90;;;;;;5054698;28;20201;-70
2022/01/25 08:45:31;;;;;;;57.60;31.40;;;4.00;99.90;;;;;;5071572;28;20083;-70
2022/01/25 08:48:00;;;;;;;53.90;29.27;;;4.00;99.90;;;;;;5071006;28;20049;-70
2022/01/25 08:50:27;;;;;;;57.80;29.98;;;4.00;99.90;;;;;;5056263;28;20045;-70
2022/01/25 08:52:54;;;;;;;52.90;28.92;;;4.00;99.90;;;;;;5071449;28;20102;-71
2022/01/25 08:55:21;;;;;;;52.58;29.00;;;4.00;99.90;;;;;;5064100;28;20107;-70
2022/01/25 08:57:48;;;;;;;54.20;28.17;;;4.00;99.90;;;;;;5037049;28;20080;-70
2022/01/25 09:00:15;;;;;;;53.92;27.42;;;4.00;99.90;;;;;;5054749;28;20045;-70
2022/01/25 09:02:42;;;;;;;53.03;28.85;;;4.00;99.90;;;;;;5053632;28;20116;-70
2022/01/25 09:05:11;;;;;;;52.25;28.27;;;4.20;99.90;;;;;;5054437;28;20056;-70
2022/01/25 09:07:38;;;;;;;51.83;28.67;;;4.10;99.90;;;;;;5055883;28;20045;-70
2022/01/25 09:10:06;;;;;;;52.83;28.50;;;4.00;99.90;;;;;;5054481;28;20562;-70
2022/01/25 09:12:33;;;;;;;59.03;29.13;;;4.00;99.90;;;;;;5054519;28;20064;-70
2022/01/25 09:15:00;;;;;;;51.67;28.38;;;4.10;99.90;;;;;;5055456;28;20049;-71
2022/01/25 09:17:27;;;;;;;54.58;28.25;;;4.10;99.90;;;;;;5053705;28;20451;-71
2022/01/25 09:19:53;;;;;;;60.33;30.08;;;4.00;99.90;;;;;;5054179;28;20385;-70
2022/01/25 09:22:22;;;;;;;54.30;28.38;;;4.00;99.90;;;;;;5053457;28;20497;-70
2022/01/25 09:24:49;;;;;;;56.60;30.10;;;4.10;99.90;;;;;;5053510;28;20049;-69
2022/01/25 09:27:16;;;;;;;55.55;29.60;;;4.10;99.90;;;;;;5054120;28;20048;-69
2022/01/25 09:29:43;;;;;;;53.85;29.42;;;4.10;99.90;;;;;;5055003;28;20457;-70
2022/01/25 09:32:10;;;;;;;55.63;29.17;;;4.10;99.90;;;;;;5055266;28;20052;-70
2022/01/25 09:34:36;;;;;;;57.00;29.58;;;4.10;99.90;;;;;;5053994;28;20053;-69
2022/01/25 09:37:04;;;;;;;51.92;27.63;;;4.10;99.90;;;;;;5053475;28;20130;-69
2022/01/25 09:39:32;;;;;;;56.30;29.35;;;4.20;99.90;;;;;;5070577;28;20041;-70
2022/01/25 09:42:00;;;;;;;55.42;29.15;;;4.20;99.90;;;;;;5070470;28;20044;-71
2022/01/25 09:44:27;;;;;;;59.08;30.80;;;4.20;99.90;;;;;;5070179;28;20053;-69
2022/01/25 09:46:56;;;;;;;57.42;28.15;;;4.20;99.90;;;;;;5070125;28;20053;-70
2022/01/25 09:49:23;;;;;;;53.45;28.70;;;4.20;99.90;;;;;;5070599;28;20047;-69
2022/01/25 09:51:51;;;;;;;57.80;31.17;;;4.20;99.90;;;;;;5053190;28;20052;-70
2022/01/25 09:54:17;;;;;;;58.25;30.27;;;4.20;99.90;;;;;;5054636;28;20044;-71
2022/01/25 09:56:46;;;;;;;55.63;29.48;;;4.20;99.90;;;;;;5054702;28;20051;-70
2022/01/25 09:59:12;;;;;;;56.38;29.17;;;4.20;99.90;;;;;;5054165;28;20053;-70
2022/01/25 10:01:39;;;;;;;53.28;27.45;;;4.20;99.90;;;;;;5053605;28;20057;-70
2022/01/25 10:04:28;;;;;;;62.65;31.05;;;4.20;99.90;;;;;;5054767;28;20049;-71
2022/01/25 10:06:54;;;;;;;58.97;30.65;;;4.20;99.90;;;;;;5053607;28;20067;-70
2022/01/25 10:09:22;;;;;;;58.13;29.35;;;4.20;99.90;;;;;;5054287;28;20045;-70
2022/01/25 10:11:50;;;;;;;55.65;29.15;;;4.20;99.90;;;;;;5052498;28;20091;-70
2022/01/25 10:14:17;;;;;;;56.38;30.45;;;4.30;99.90;;;;;;5053256;28;20056;-71
2022/01/25 10:16:45;;;;;;;53.58;28.80;;;4.30;99.90;;;;;;5053266;28;20202;-70
2022/01/25 10:19:13;;;;;;;60.63;30.75;;;4.30;99.90;;;;;;5053374;28;20412;-71
2022/01/25 10:21:42;;;;;;;55.85;27.90;;;4.30;99.90;;;;;;5054282;28;20094;-71
2022/01/25 10:24:10;;;;;;;57.05;30.55;;;4.30;99.90;;;;;;5053052;28;20088;-71
2022/01/25 10:26:40;;;;;;;56.03;28.80;;;4.30;99.90;;;;;;5052579;28;20563;-70
2022/01/25 10:29:09;;;;;;;60.08;30.20;;;4.30;99.90;;;;;;5052725;28;20132;-70
2022/01/25 10:31:38;;;;;;;56.17;30.77;;;4.30;99.90;;;;;;5052985;28;20433;-70
2022/01/25 10:34:06;;;;;;;58.75;30.20;;;4.30;99.90;;;;;;5051847;28;20102;-70
2022/01/25 10:36:34;;;;;;;57.97;30.67;;;4.30;99.90;;;;;;5069106;28;20057;-70
2022/01/25 10:39:01;;;;;;;55.22;30.35;;;4.30;99.90;;;;;;5053609;28;20053;-70
2022/01/25 10:41:31;;;;;;;60.40;29.67;;;4.40;99.90;;;;;;5068491;28;20515;-71
2022/01/25 10:43:59;;;;;;;54.35;27.98;;;4.40;99.90;;;;;;5052364;28;20088;-70
2022/01/25 10:46:29;;;;;;;55.38;28.23;;;4.40;99.90;;;;;;5052265;28;20056;-70
2022/01/25 10:48:58;;;;;;;62.47;31.80;;;4.40;99.90;;;;;;5052147;28;20049;-70
2022/01/25 10:51:28;;;;;;;61.35;31.90;;;4.40;99.90;;;;;;5069017;28;20111;-71
2022/01/25 10:54:00;;;;;;;59.25;30.17;;;4.40;99.90;;;;;;5068401;28;20057;-70
2022/01/25 10:56:35;;;;;;;58.33;31.10;;;4.50;99.90;;;;;;5053373;28;20504;-70
2022/01/25 10:59:03;;;;;;;62.22;29.45;;;4.50;99.90;;;;;;5047614;28;20056;-70
2022/01/25 11:01:33;;;;;;;60.25;30.65;;;4.40;99.90;;;;;;5066976;28;20048;-69
2022/01/25 11:04:13;;;;;;;61.77;28.70;;;4.40;99.90;;;;;;5051690;28;20055;-70
2022/01/25 11:06:40;;;;;;;59.42;31.85;;;4.50;99.90;;;;;;5052133;28;20088;-71
2022/01/25 11:09:10;;;;;;;53.65;28.80;;;4.50;99.90;;;;;;5050539;28;20088;-70
2022/01/25 11:11:40;;;;;;;60.20;32.03;;;4.50;99.90;;;;;;5051765;28;20136;-70
2022/01/25 11:16:54;;;;;;;60.17;30.23;;;4.50;99.90;;;;;;5066166;28;20055;-69
2022/01/25 11:19:22;;;;;;;58.38;30.55;;;4.40;99.90;;;;;;5051412;28;20049;-69
2022/01/25 11:21:50;;;;;;;61.85;31.58;;;4.50;99.90;;;;;;5052306;28;20129;-70
2022/01/25 11:24:19;;;;;;;62.55;29.98;;;4.50;99.90;;;;;;5067690;28;20045;-70
2022/01/25 11:26:48;;;;;;;57.15;30.65;;;4.50;99.90;;;;;;5068062;28;20133;-70
2022/01/25 11:29:16;;;;;;;58.63;30.58;;;4.60;99.90;;;;;;5051771;28;20432;-70
2022/01/25 11:31:47;;;;;;;59.70;30.27;;;4.60;99.90;;;;;;5051239;28;20044;-70
2022/01/25 11:34:16;;;;;;;54.45;31.48;;;4.50;99.90;;;;;;5051035;28;20558;-70
2022/01/25 11:36:45;;;;;;;56.45;29.20;;;4.60;99.90;;;;;;5050208;28;20057;-70
2022/01/25 11:39:16;;;;;;;61.00;31.55;;;4.60;99.90;;;;;;5050906;28;20118;-69
2022/01/25 11:41:43;;;;;;;;;;;4.50;99.90;;;;;;5051886;28;20057;-70
2022/01/25 11:44:12;;;;;;;52.70;27.50;;;4.50;99.90;;;;;;5050457;28;20015;-69
2022/01/25 11:46:41;;;;;;;56.78;30.85;;;4.50;99.90;;;;;;5050364;28;20493;-70
2022/01/25 11:49:14;;;;;;;57.30;29.00;;;4.50;99.90;;;;;;5050679;28;20107;-69
2022/01/25 11:51:43;;;;;;;54.05;30.25;;;4.50;99.90;;;;;;5067315;28;20497;-69
2022/01/25 11:54:10;;;;;;;57.85;30.23;;;4.50;99.90;;;;;;5067529;28;20056;-71
2022/01/25 11:56:41;;;;;;;58.40;30.25;;;4.40;99.90;;;;;;5051164;28;20108;-70
2022/01/25 11:59:14;;;;;;;63.25;29.25;;;4.50;99.90;;;;;;5057803;28;20072;-70
2022/01/25 12:01:41;;;;;;;58.60;29.73;;;4.50;99.90;;;;;;5031685;28;20041;-72
2022/01/25 12:04:11;;;;;;;59.70;31.15;;;4.40;99.90;;;;;;5031003;28;20413;-70
2022/01/25 12:06:43;;;;;;;57.55;28.65;;;4.50;99.90;;;;;;5048467;28;20049;-70
2022/01/25 12:09:17;;;;;;;63.05;31.98;;;4.50;99.90;;;;;;5068206;28;20540;-70
2022/01/25 12:11:48;;;;;;;55.58;28.17;;;4.50;99.90;;;;;;5067755;28;20053;-70
2022/01/25 12:14:32;;;;;;;57.78;28.90;;;4.50;99.90;;;;;;5051350;28;20049;-70
2022/01/25 12:17:11;;;;;;;56.83;30.85;;;4.50;99.90;;;;;;5051164;28;20511;-70
2022/01/25 12:19:44;;;;;;;60.13;30.48;;;4.50;99.90;;;;;;5051771;28;20528;-70
2022/01/25 12:22:16;;;;;;;55.72;27.95;;;4.50;99.90;;;;;;5052581;28;20110;-70
2022/01/25 12:24:53;;;;;;;57.65;29.50;;;4.60;99.90;;;;;;5067706;28;20064;-70
2022/01/25 12:27:25;;;;;;;54.85;28.38;;;4.60;99.90;;;;;;5049641;28;20151;-70
2022/01/25 12:30:07;;;;;;;61.70;28.92;;;4.60;99.90;;;;;;5052544;28;20092;-71
2022/01/25 12:32:36;;;;;;;57.00;29.27;;;4.50;99.90;;;;;;5050681;28;20056;-70
2022/01/25 12:35:14;;;;;;;58.60;29.75;;;4.50;99.90;;;;;;5050641;28;20056;-70
2022/01/25 12:38:05;;;;;;;61.38;30.33;;;4.50;99.90;;;;;;5052232;28;20501;-71
2022/01/25 12:40:50;;;;;;;56.60;31.08;;;4.50;99.90;;;;;;5050830;28;20440;-71
2022/01/25 12:43:19;;;;;;;57.75;29.80;;;4.50;99.90;;;;;;5051051;28;20053;-71
2022/01/25 12:45:49;;;;;;;63.88;31.25;;;4.50;99.90;;;;;;5052285;28;20128;-72
2022/01/25 12:48:19;;;;;;;61.30;28.92;;;4.50;99.90;;;;;;5050529;28;20057;-71
2022/01/25 12:50:49;;;;;;;54.65;28.05;;;4.50;99.90;;;;;;5049858;28;20056;-70
2022/01/25 12:53:18;;;;;;;60.50;30.80;;;4.60;99.90;;;;;;5050388;28;20071;-71
2022/01/25 12:55:49;;;;;;;57.63;30.98;;;4.50;99.90;;;;;;5051038;28;20053;-70
2022/01/25 12:58:18;;;;;;;52.30;28.55;;;4.50;99.90;;;;;;5051653;28;20393;-70
2022/01/25 13:00:47;;;;;;;58.88;30.98;;;4.50;99.90;;;;;;5069570;28;20048;-70
2022/01/25 13:03:20;;;;;;;63.72;30.38;;;4.50;99.90;;;;;;5071391;28;20057;-70
2022/01/25 13:05:50;;;;;;;58.35;30.20;;;4.50;99.90;;;;;;5054309;28;20053;-70
2022/01/25 13:08:20;;;;;;;58.53;30.70;;;4.40;99.90;;;;;;5054123;28;20049;-69
2022/01/25 13:10:49;;;;;;;63.17;30.42;;;4.40;99.90;;;;;;5054511;28;20095;-74
2022/01/25 13:13:24;;;;;;;64.00;31.30;;;4.50;99.90;;;;;;5032073;28;20137;-72
2022/01/25 13:15:56;;;;;;;61.38;30.40;;;4.50;99.90;;;;;;5044644;28;20052;-72
2022/01/25 13:18:25;;;;;;;57.13;29.13;;;4.50;99.90;;;;;;5071083;28;20063;-70
2022/01/25 13:21:01;;;;;;;53.40;27.70;;;4.50;99.90;;;;;;5055221;28;20128;-71
2022/01/25 13:23:28;;;;;;;57.25;30.60;;;4.50;99.90;;;;;;5053899;28;20107;-71
2022/01/25 13:26:07;;;;;;;56.22;29.15;;;4.50;99.90;;;;;;5053855;28;20098;-70
2022/01/25 13:28:38;;;;;;;58.22;29.40;;;4.40;99.90;;;;;;5053641;28;20080;-70
2022/01/25 13:31:08;;;;;;;54.88;30.63;;;4.50;99.90;;;;;;5055056;28;20052;-70
2022/01/25 13:33:36;;;;;;;59.40;30.33;;;4.50;99.90;;;;;;5053677;28;20068;-70
2022/01/25 13:36:07;;;;;;;57.45;29.60;;;4.40;99.90;;;;;;5052755;28;20098;-70
2022/01/25 13:38:36;;;;;;;61.50;31.00;;;4.40;99.90;;;;;;5053560;28;20049;-70
2022/01/25 13:41:17;;;;;;;63.03;29.13;;;4.40;99.90;;;;;;5054739;28;20053;-70
2022/01/25 13:46:32;;;;;;;57.67;29.20;;;4.40;99.90;;;;;;5054577;28;20519;-70
2022/01/25 13:49:01;;;;;;;59.08;29.80;;;4.40;99.90;;;;;;5053722;28;20048;-71
2022/01/25 13:51:29;;;;;;;60.33;31.20;;;4.40;99.90;;;;;;5053315;28;20048;-71
2022/01/25 13:53:59;;;;;;;59.25;30.40;;;4.40;99.90;;;;;;5053805;28;20057;-69
2022/01/25 13:56:29;;;;;;;60.33;29.10;;;4.40;99.90;;;;;;5053731;28;20397;-70
2022/01/25 13:58:57;;;;;;;59.70;30.15;;;4.50;99.90;;;;;;5053090;28;20052;-70
2022/01/25 14:01:26;;;;;;;65.35;31.38;;;4.40;99.90;;;;;;5053616;28;20084;-70
2022/01/25 14:03:55;;;;;;;60.17;29.38;;;4.40;99.90;;;;;;5069753;28;20057;-71
2022/01/25 14:06:24;;;;;;;51.25;28.25;;;4.40;99.90;;;;;;5058682;28;20050;-70
2022/01/25 14:08:53;;;;;;;61.65;30.98;;;4.30;99.90;;;;;;5033594;28;20053;-69
2022/01/25 14:11:27;;;;;;;64.93;29.73;;;4.30;99.90;;;;;;5039198;28;20048;-69
2022/01/25 14:22:30;;;;;;;58.75;30.25;;;4.20;99.90;;;;;;5048222;28;20072;-70